Time;durP1;ratioP1;P1;durP2;ratioP2;P2;SDS_P1;SDS_P2;PMS_P1;PMS_P2;Temp;Humidity;BMP_temperature;BMP_pressure;BME280_temperature;BME280_humidity;BME280_pressure;Samples;Min_cycle;Max_cycle;Signal;HPM_P1;HPM_P2
2022/02/14 00:00:19;;;;;;;8.25;3.95;;;;;;;6.40;72.75;98488.56;4995653;28;20093;-65
2022/02/14 00:03:04;;;;;;;5.75;4.13;;;;;;;6.41;72.34;98502.25;4995217;28;20054;-65
2022/02/14 00:05:47;;;;;;;9.30;3.30;;;;;;;6.40;72.73;98498.84;4995935;28;20057;-65
2022/02/14 00:08:31;;;;;;;8.60;4.30;;;;;;;6.41;72.76;98476.53;4995618;28;20069;-65
2022/02/14 00:11:15;;;;;;;5.50;4.13;;;;;;;6.42;72.58;98482.56;4997093;28;20081;-66
2022/02/14 00:13:59;;;;;;;7.18;4.03;;;;;;;6.43;72.57;98486.84;4996322;28;20049;-64
2022/02/14 00:16:45;;;;;;;6.05;4.13;;;;;;;6.43;72.61;98474.00;4995641;28;20053;-65
2022/02/14 00:19:29;;;;;;;6.18;4.18;;;;;;;6.44;72.74;98480.84;4996131;28;20057;-65
2022/02/14 00:22:13;;;;;;;6.28;3.92;;;;;;;6.43;72.59;98459.41;4995122;28;20564;-64
2022/02/14 00:24:57;;;;;;;7.78;4.07;;;;;;;6.42;72.65;98457.66;4995285;28;20109;-65
2022/02/14 00:27:41;;;;;;;6.75;4.57;;;;;;;6.42;72.53;98447.38;4996062;28;20108;-64
2022/02/14 00:30:25;;;;;;;7.82;4.15;;;;;;;6.43;72.41;98464.53;4996182;28;20049;-65
2022/02/14 00:33:11;;;;;;;10.95;3.95;;;;;;;6.43;72.24;98453.41;4995947;28;20057;-64
2022/02/14 00:35:55;;;;;;;8.75;3.45;;;;;;;6.43;72.85;98448.25;4995950;28;20108;-65
2022/02/14 00:38:39;;;;;;;6.22;4.10;;;;;;;6.43;72.69;98450.81;4994974;28;20050;-64
2022/02/14 00:41:23;;;;;;;9.25;4.13;;;;;;;6.43;72.42;98448.25;4995859;28;20045;-65
2022/02/14 00:44:07;;;;;;;10.15;4.38;;;;;;;6.42;72.54;98449.09;4995831;28;20131;-64
2022/02/14 00:46:51;;;;;;;6.85;3.65;;;;;;;6.41;72.26;98435.34;4995984;28;20477;-65
2022/02/14 00:49:35;;;;;;;;;;;;;;;6.39;72.68;98427.63;4995976;28;20073;-65
2022/02/14 00:52:19;;;;;;;9.65;3.95;;;;;;;6.40;72.73;98420.75;4995679;28;19921;-65
2022/02/14 00:55:04;;;;;;;7.13;3.75;;;;;;;6.40;72.68;98419.06;4995755;28;20057;-65
2022/02/14 00:57:49;;;;;;;;;;;;;;;6.39;72.67;98411.31;4995085;28;20049;-64
2022/02/14 01:00:34;;;;;;;8.35;3.28;;;;;;;6.38;72.44;98413.03;4995278;28;20325;-65
2022/02/14 01:03:17;;;;;;;7.22;4.20;;;;;;;6.40;72.42;98410.47;4994276;28;20061;-65
2022/02/14 01:06:02;;;;;;;8.07;4.47;;;;;;;6.39;72.50;98412.19;4995269;28;20049;-64
2022/02/14 01:08:45;;;;;;;6.30;4.00;;;;;;;6.41;72.69;98401.91;4994232;28;20093;-65
2022/02/14 01:11:30;;;;;;;9.18;4.28;;;;;;;6.41;72.80;98401.91;4995516;28;20414;-65
2022/02/14 01:14:14;;;;;;;6.18;3.55;;;;;;;6.41;72.89;98394.19;4994953;28;20057;-64
2022/02/14 01:16:59;;;;;;;8.98;4.50;;;;;;;6.42;72.47;98393.34;4994285;28;20096;-65
2022/02/14 01:19:43;;;;;;;6.15;3.97;;;;;;;6.43;72.51;98391.63;4995207;28;20461;-65
2022/02/14 01:22:28;;;;;;;6.35;4.72;;;;;;;6.43;72.61;98389.06;4995517;28;20057;-65
2022/02/14 01:25:13;;;;;;;12.88;3.80;;;;;;;6.44;73.05;98395.94;4994727;28;20536;-65
2022/02/14 01:27:57;;;;;;;4.97;3.40;;;;;;;6.45;72.65;98382.22;4994207;28;20116;-66
2022/02/14 01:30:41;;;;;;;9.68;4.00;;;;;;;6.45;72.88;98382.22;4994853;28;20061;-64
2022/02/14 01:33:27;;;;;;;9.70;4.95;;;;;;;6.45;72.93;98387.38;4993642;28;20108;-65
2022/02/14 01:36:14;;;;;;;10.43;4.60;;;;;;;6.45;72.47;98370.19;4995003;28;20105;-65
2022/02/14 01:39:00;;;;;;;11.02;4.47;;;;;;;6.45;72.97;98365.03;4994934;28;20053;-64
2022/02/14 01:41:44;;;;;;;7.70;3.67;;;;;;;6.45;73.07;98366.78;4993901;28;20181;-65
2022/02/14 01:44:41;;;;;;;9.68;4.18;;;;;;;6.44;72.74;98368.47;4994607;28;20533;-65
2022/02/14 01:47:26;;;;;;;8.68;4.55;;;;;;;6.45;73.01;98364.19;4993827;28;20548;-64
2022/02/14 01:50:13;;;;;;;5.60;4.40;;;;;;;6.43;72.64;98356.44;4994830;28;20049;-65
2022/02/14 01:52:57;;;;;;;8.52;4.63;;;;;;;6.44;72.84;98354.75;4993672;28;20226;-65
2022/02/14 01:55:41;;;;;;;15.32;4.88;;;;;;;6.44;72.81;98357.31;4994662;28;20168;-66
2022/02/14 01:58:25;;;;;;;;;;;;;;;6.43;72.98;98347.88;4994944;28;20061;-64
2022/02/14 02:01:09;;;;;;;7.07;3.38;;;;;;;6.40;72.60;98343.56;4994495;28;19921;-64
2022/02/14 02:03:54;;;;;;;6.70;4.18;;;;;;;6.42;72.37;98348.72;4993972;28;20120;-65
2022/02/14 02:06:40;;;;;;;7.47;4.22;;;;;;;6.42;73.11;98351.31;4994193;28;20053;-65
2022/02/14 02:09:25;;;;;;;6.95;3.47;;;;;;;6.42;72.84;98338.44;4994208;28;20519;-65
2022/02/14 02:12:22;;;;;;;5.07;3.78;;;;;;;6.41;73.06;98327.28;4993289;28;20088;-65
2022/02/14 02:15:09;;;;;;;7.00;4.53;;;;;;;6.41;72.94;98335.00;4994301;28;20061;-65
2022/02/14 02:17:54;;;;;;;9.52;3.70;;;;;;;6.41;73.25;98335.00;4994105;28;20061;-65
2022/02/14 02:20:37;;;;;;;6.88;3.90;;;;;;;6.40;73.00;98322.97;4993461;28;20064;-65
2022/02/14 02:23:24;;;;;;;9.63;4.50;;;;;;;6.42;73.03;98325.56;4994173;28;20137;-65
2022/02/14 02:26:08;;;;;;;13.95;5.35;;;;;;;6.42;72.87;98320.44;4993573;28;20105;-65
2022/02/14 02:28:52;;;;;;;6.20;4.53;;;;;;;6.43;73.27;98304.13;4994379;28;20117;-65
2022/02/14 02:31:36;;;;;;;7.65;3.83;;;;;;;6.44;73.25;98304.13;4994269;28;20499;-65
2022/02/14 02:34:20;;;;;;;7.00;3.85;;;;;;;6.44;73.10;98285.28;4997338;28;20521;-65
2022/02/14 02:37:06;;;;;;;7.90;4.15;;;;;;;6.45;73.28;98279.28;4998161;28;20061;-65
2022/02/14 02:39:50;;;;;;;9.57;4.28;;;;;;;6.45;73.11;98271.56;4998311;28;20576;-64
2022/02/14 02:42:35;;;;;;;;;;;;;;;6.45;73.03;98259.53;4998591;28;20509;-65
2022/02/14 02:45:19;;;;;;;10.52;4.38;;;;;;;6.44;73.01;98262.94;4998209;28;20419;-65
2022/02/14 02:48:03;;;;;;;6.97;3.53;;;;;;;6.45;73.22;98268.97;4997226;28;20513;-64
2022/02/14 02:51:02;;;;;;;;;;;;;;;6.45;73.09;98254.38;4997188;28;20060;-64
2022/02/14 02:53:50;;;;;;;5.40;3.70;;;;;;;6.46;72.83;98253.53;4997834;28;19925;-65
2022/02/14 02:56:35;;;;;;;6.40;3.58;;;;;;;6.45;72.84;98254.38;4997859;28;20057;-65
2022/02/14 02:59:20;;;;;;;5.03;3.25;;;;;;;6.48;72.70;98268.97;4996996;28;20090;-65
2022/02/14 03:02:06;;;;;;;8.00;3.20;;;;;;;6.50;73.23;98251.81;4996510;28;20061;-64
2022/02/14 03:04:50;;;;;;;5.82;3.92;;;;;;;6.52;73.05;98255.25;4997827;28;20050;-64
2022/02/14 03:07:34;;;;;;;7.55;3.78;;;;;;;6.53;72.82;98257.84;4997572;28;20053;-65
2022/02/14 03:10:18;;;;;;;6.03;3.10;;;;;;;6.54;72.96;98249.25;4997660;28;20413;-64
2022/02/14 03:13:02;;;;;;;8.85;4.03;;;;;;;6.55;72.99;98244.97;4996531;28;20414;-65
2022/02/14 03:15:46;;;;;;;9.55;3.40;;;;;;;6.56;72.74;98251.84;4996923;28;20057;-65
2022/02/14 03:18:30;;;;;;;9.15;3.67;;;;;;;6.58;73.02;98247.56;4996441;28;20045;-65
2022/02/14 03:21:14;;;;;;;7.53;3.53;;;;;;;6.57;73.11;98243.28;4997543;28;20133;-64
2022/02/14 03:23:58;;;;;;;4.93;3.65;;;;;;;6.58;73.09;98236.41;4996774;28;20081;-65
2022/02/14 03:26:42;;;;;;;6.75;3.72;;;;;;;6.58;72.80;98234.69;4997271;28;20393;-65
2022/02/14 03:29:26;;;;;;;;;;;;;;;6.56;72.73;98226.13;4997866;28;20077;-65
2022/02/14 03:32:10;;;;;;;7.22;3.33;;;;;;;6.55;72.84;98216.66;4997114;28;19921;-65
2022/02/14 03:34:54;;;;;;;5.80;4.10;;;;;;;6.55;72.78;98227.81;4997365;28;20123;-65
2022/02/14 03:37:38;;;;;;;4.03;2.88;;;;;;;6.57;73.08;98216.66;4996305;28;20049;-65
2022/02/14 03:40:22;;;;;;;5.18;3.42;;;;;;;6.56;73.21;98218.38;4997698;28;20085;-65
2022/02/14 03:43:07;;;;;;;5.53;3.22;;;;;;;6.58;73.13;98223.53;4995994;28;20108;-64
2022/02/14 03:45:50;;;;;;;6.32;4.30;;;;;;;6.58;72.95;98224.41;4995946;28;20069;-65
2022/02/14 03:48:34;;;;;;;6.80;3.05;;;;;;;6.59;72.99;98223.56;4996596;28;20060;-65
2022/02/14 03:51:19;;;;;;;3.72;3.20;;;;;;;6.61;72.90;98214.13;4996632;28;20050;-65
2022/02/14 03:54:03;;;;;;;5.40;3.30;;;;;;;6.60;72.89;98222.69;4996326;28;20128;-64
2022/02/14 03:56:49;;;;;;;8.02;3.78;;;;;;;6.62;73.01;98217.53;4995958;28;20520;-65
2022/02/14 03:59:35;;;;;;;4.18;3.10;;;;;;;6.64;72.85;98206.38;4996620;28;20049;-64
2022/02/14 04:02:20;;;;;;;6.50;3.50;;;;;;;6.66;72.94;98206.41;4996400;28;20061;-65
2022/02/14 04:05:06;;;;;;;6.82;3.72;;;;;;;6.66;72.98;98211.56;4996475;28;20097;-65
2022/02/14 04:07:51;;;;;;;12.65;3.53;;;;;;;6.66;73.30;98194.38;4995627;28;20049;-65
2022/02/14 04:10:35;;;;;;;7.40;3.70;;;;;;;6.67;73.25;98211.53;4996569;28;20069;-65
2022/02/14 04:13:19;;;;;;;6.43;3.55;;;;;;;6.72;72.91;98202.97;4995558;28;20049;-65
2022/02/14 04:16:04;;;;;;;6.18;3.08;;;;;;;6.73;73.25;98209.84;4995373;28;20461;-66
2022/02/14 04:18:48;;;;;;;;;;;;;;;6.73;73.09;98202.13;4996016;28;20108;-64
2022/02/14 04:21:34;;;;;;;5.85;3.25;;;;;;;6.73;73.15;98200.41;4996157;28;19936;-65
2022/02/14 04:24:18;;;;;;;5.18;3.30;;;;;;;6.74;73.13;98198.69;4995718;28;20053;-65
2022/02/14 04:27:02;;;;;;;5.20;3.05;;;;;;;6.73;73.12;98189.25;4996129;28;20451;-64
2022/02/14 04:29:46;;;;;;;8.52;4.35;;;;;;;6.74;73.29;98196.13;4995382;28;20052;-65
2022/02/14 04:32:31;;;;;;;4.93;4.00;;;;;;;6.74;72.88;98220.13;4996164;28;20190;-65
2022/02/14 04:35:15;;;;;;;8.20;3.92;;;;;;;6.76;73.04;98207.28;4996078;28;20216;-64
2022/02/14 04:37:59;;;;;;;9.60;3.83;;;;;;;6.76;73.45;98190.13;4996262;28;20130;-65
2022/02/14 04:40:44;;;;;;;5.32;3.60;;;;;;;6.78;73.24;98211.56;4996072;28;20053;-65
2022/02/14 04:43:27;;;;;;;4.85;4.35;;;;;;;6.78;73.07;98193.56;4994857;28;20100;-64
2022/02/14 04:46:11;;;;;;;4.78;4.20;;;;;;;6.79;73.64;98200.41;4995967;28;20533;-65
2022/02/14 04:48:55;;;;;;;7.13;4.40;;;;;;;6.80;73.52;98209.88;4996407;28;20069;-64
2022/02/14 04:51:42;;;;;;;4.63;3.63;;;;;;;6.82;73.58;98208.16;4995739;28;20049;-65
2022/02/14 04:54:26;;;;;;;4.30;3.28;;;;;;;6.82;73.26;98215.00;4994144;28;20053;-65
2022/02/14 04:57:11;;;;;;;3.50;3.20;;;;;;;6.82;73.33;98210.72;4995729;28;20053;-65
2022/02/14 04:59:54;;;;;;;5.68;4.15;;;;;;;6.82;73.37;98203.00;4994285;28;20057;-66
2022/02/14 05:02:38;;;;;;;4.20;3.72;;;;;;;6.83;73.51;98209.00;4995437;28;20461;-65
2022/02/14 05:05:22;;;;;;;3.42;3.10;;;;;;;6.82;73.66;98213.31;4995459;28;20137;-65
2022/02/14 05:08:07;;;;;;;5.70;3.63;;;;;;;6.83;73.48;98207.31;4994350;28;20429;-64
2022/02/14 05:10:51;;;;;;;4.07;3.30;;;;;;;6.83;73.41;98198.69;4994557;28;20560;-65
2022/02/14 05:13:39;;;;;;;5.00;3.80;;;;;;;6.83;73.59;98202.16;4995309;28;20053;-65
2022/02/14 05:16:24;;;;;;;4.63;3.97;;;;;;;6.84;73.51;98198.72;4995399;28;20049;-65
2022/02/14 05:19:08;;;;;;;5.22;3.67;;;;;;;6.85;73.51;98217.59;4995322;28;20084;-65
2022/02/14 05:21:52;;;;;;;4.47;3.42;;;;;;;6.86;73.36;98222.72;4994165;28;20049;-65
2022/02/14 05:24:36;;;;;;;4.10;3.22;;;;;;;6.86;73.65;98207.28;4995216;28;20061;-65
2022/02/14 05:27:20;;;;;;;5.70;3.95;;;;;;;6.86;73.71;98209.00;4995086;28;20042;-65
2022/02/14 05:30:05;;;;;;;;;;;;;;;6.85;73.31;98207.28;4995486;28;20206;-65
2022/02/14 05:32:49;;;;;;;3.13;2.70;;;;;;;6.85;73.32;98202.16;4994041;28;19924;-64
2022/02/14 05:35:33;;;;;;;6.68;3.25;;;;;;;6.86;73.35;98209.00;4993901;28;20053;-65
2022/02/14 05:38:17;;;;;;;9.80;3.28;;;;;;;6.87;73.90;98208.16;4994947;28;20184;-65
2022/02/14 05:41:01;;;;;;;5.03;2.63;;;;;;;6.87;73.83;98213.31;4994784;28;20466;-65
2022/02/14 05:43:45;;;;;;;5.03;3.30;;;;;;;6.87;73.97;98213.31;4993941;28;20100;-65
2022/02/14 05:46:30;;;;;;;3.63;2.20;;;;;;;6.88;73.93;98209.88;4994585;28;20446;-65
2022/02/14 05:49:14;;;;;;;7.18;2.97;;;;;;;6.88;73.77;98197.00;4993897;28;20125;-65
2022/02/14 05:51:58;;;;;;;4.82;3.47;;;;;;;6.90;73.74;98221.03;4993838;28;20584;-65
2022/02/14 05:54:42;;;;;;;4.97;3.00;;;;;;;6.90;73.84;98210.75;4993783;28;20512;-66
2022/02/14 05:57:26;;;;;;;;;;;;;;;6.90;73.77;98200.44;4994753;28;20057;-64
2022/02/14 06:00:11;;;;;;;3.65;3.00;;;;;;;6.90;74.01;98200.44;4994688;28;20012;-65
2022/02/14 06:02:55;;;;;;;4.80;2.90;;;;;;;6.90;74.11;98209.88;4993050;28;20138;-65
2022/02/14 06:05:39;;;;;;;3.78;3.47;;;;;;;6.91;73.71;98222.78;4993689;28;20517;-64
2022/02/14 06:08:23;;;;;;;7.05;3.50;;;;;;;6.93;74.09;98207.31;4994045;28;20057;-66
2022/02/14 06:11:07;;;;;;;4.25;3.10;;;;;;;6.93;73.75;98225.34;4994158;28;20053;-65
2022/02/14 06:13:50;;;;;;;3.85;2.80;;;;;;;6.94;74.03;98233.06;4994027;28;20138;-65
2022/02/14 06:16:34;;;;;;;3.67;3.00;;;;;;;6.95;73.79;98219.31;4994483;28;20497;-64
2022/02/14 06:19:21;;;;;;;4.43;3.42;;;;;;;6.96;73.95;98215.03;4993539;28;20053;-64
2022/02/14 06:22:05;;;;;;;3.78;3.17;;;;;;;6.97;74.25;98220.19;4994144;28;20532;-65
2022/02/14 06:24:49;;;;;;;5.93;2.58;;;;;;;6.97;73.90;98216.75;4994223;28;20049;-64
2022/02/14 06:27:33;;;;;;;5.55;3.10;;;;;;;6.98;74.25;98231.34;4993405;28;20045;-64
2022/02/14 06:30:19;;;;;;;7.13;3.55;;;;;;;6.99;74.38;98228.78;4994038;28;20077;-65
2022/02/14 06:33:03;;;;;;;4.38;3.30;;;;;;;6.98;74.14;98224.47;4994095;28;20077;-65
2022/02/14 06:35:47;;;;;;;4.15;3.10;;;;;;;7.00;73.96;98237.38;4994277;28;20099;-65
2022/02/14 06:38:31;;;;;;;6.40;3.90;;;;;;;6.98;74.07;98234.78;4994339;28;20089;-65
2022/02/14 06:41:15;;;;;;;;;;;;;;;6.99;73.96;98239.06;4994637;28;20477;-64
2022/02/14 06:44:00;;;;;;;9.93;2.92;;;;;;;6.98;74.44;98234.78;4993319;28;19946;-66
2022/02/14 06:46:43;;;;;;;5.05;2.83;;;;;;;7.00;74.31;98237.38;4993532;28;20049;-65
2022/02/14 06:49:30;;;;;;;4.47;2.75;;;;;;;6.99;74.07;98251.13;4993103;28;20058;-65
2022/02/14 06:52:14;;;;;;;3.88;3.47;;;;;;;7.00;74.55;98242.53;4994072;28;20053;-64
2022/02/14 06:54:58;;;;;;;5.53;3.50;;;;;;;7.00;74.40;98230.50;4993756;28;20073;-65
2022/02/14 06:57:43;;;;;;;4.30;3.08;;;;;;;7.04;74.76;98258.84;4993061;28;20125;-64
2022/02/14 07:00:27;;;;;;;;;;;;;;;7.01;74.47;98245.09;4994232;28;20053;-65
2022/02/14 07:03:11;;;;;;;4.55;2.90;;;;;;;7.01;74.40;98249.38;4993430;28;19948;-64
2022/02/14 07:05:55;;;;;;;;;;;;;;;7.03;74.47;98255.38;4994416;28;20132;-65
2022/02/14 07:08:39;;;;;;;4.53;3.33;;;;;;;7.01;74.54;98265.69;4993984;28;20312;-65
2022/02/14 07:11:24;;;;;;;3.70;3.10;;;;;;;7.03;74.34;98264.84;4993671;28;20120;-65
2022/02/14 07:14:08;;;;;;;;;;;;;;;7.04;74.27;98274.28;4993001;28;20524;-65
2022/02/14 07:16:52;;;;;;;3.47;3.17;;;;;;;7.03;74.42;98263.13;4992827;28;19957;-65
2022/02/14 07:19:38;;;;;;;5.65;2.88;;;;;;;7.04;74.45;98285.44;4997081;28;20049;-66
2022/02/14 07:22:23;;;;;;;6.05;3.72;;;;;;;7.05;74.69;98274.28;4997400;28;20054;-65
2022/02/14 07:25:07;;;;;;;5.40;3.33;;;;;;;7.05;74.46;98284.59;4997088;28;20053;-65
2022/02/14 07:27:51;;;;;;;5.45;3.15;;;;;;;7.05;74.56;98284.59;4996453;28;20100;-65
2022/02/14 07:30:35;;;;;;;3.78;3.05;;;;;;;7.06;74.76;98288.88;4997267;28;20057;-65
2022/02/14 07:33:20;;;;;;;8.55;3.35;;;;;;;7.08;74.57;98299.22;4997125;28;20045;-65
2022/02/14 07:36:05;;;;;;;4.07;2.95;;;;;;;7.08;74.78;98302.63;4996128;28;20145;-65
2022/02/14 07:38:50;;;;;;;6.18;3.70;;;;;;;7.09;74.89;98303.47;4996821;28;20610;-64
2022/02/14 07:41:36;;;;;;;6.30;3.63;;;;;;;7.09;74.54;98317.25;4996298;28;20561;-65
2022/02/14 07:44:19;;;;;;;5.13;3.38;;;;;;;7.09;74.73;98301.78;4996182;28;20133;-65
2022/02/14 07:47:03;;;;;;;8.25;3.88;;;;;;;7.09;75.09;98308.63;4996148;28;20057;-65
2022/02/14 07:49:47;;;;;;;5.78;3.38;;;;;;;7.10;75.05;98311.22;4995796;28;20524;-65
2022/02/14 07:52:32;;;;;;;5.50;3.83;;;;;;;7.10;74.96;98324.13;4996045;28;20116;-65
2022/02/14 07:55:18;;;;;;;5.97;3.33;;;;;;;7.09;74.90;98331.81;4996953;28;20525;-65
2022/02/14 07:58:03;;;;;;;3.60;2.90;;;;;;;7.10;75.04;98337.00;4996939;28;20134;-65
2022/02/14 08:00:47;;;;;;;4.00;3.25;;;;;;;7.09;75.01;98339.56;4996820;28;20129;-65
2022/02/14 08:03:31;;;;;;;4.05;3.35;;;;;;;7.10;74.95;98343.84;4996501;28;20113;-65
2022/02/14 08:06:18;;;;;;;;;;;;;;;7.09;74.75;98355.88;4997031;28;20536;-64
2022/02/14 08:09:07;;;;;;;4.47;3.95;;;;;;;7.07;74.72;98360.16;4995633;28;19924;-65
2022/02/14 08:11:51;;;;;;;6.05;3.50;;;;;;;7.08;75.12;98369.63;4996659;28;20065;-65
2022/02/14 08:14:36;;;;;;;5.15;3.50;;;;;;;7.08;75.17;98373.94;4996364;28;20049;-65
2022/02/14 08:17:20;;;;;;;4.20;3.15;;;;;;;7.10;75.22;98385.06;4996229;28;20061;-65
2022/02/14 08:20:05;;;;;;;5.45;2.78;;;;;;;7.09;75.19;98402.25;4996563;28;20069;-65
2022/02/14 08:22:51;;;;;;;6.32;2.65;;;;;;;7.07;75.46;98393.66;4994992;28;20057;-65
2022/02/14 08:25:36;;;;;;;2.92;2.47;;;;;;;7.10;75.29;98390.22;4996168;28;20053;-66
2022/02/14 08:28:19;;;;;;;;;;;;;;;7.08;75.24;98394.53;4995862;28;20520;-64
2022/02/14 08:31:05;;;;;;;3.17;2.50;;;;;;;7.07;75.35;98398.81;4995303;28;20067;-65
2022/02/14 08:33:49;;;;;;;2.88;2.67;;;;;;;7.05;75.38;98400.50;4995218;28;20048;-64
2022/02/14 08:36:33;;;;;;;3.17;2.55;;;;;;;7.06;75.17;98416.84;4996037;28;20050;-64
2022/02/14 08:39:17;;;;;;;2.60;2.33;;;;;;;7.07;75.05;98428.88;4995931;28;20062;-65
2022/02/14 08:42:01;;;;;;;3.95;2.25;;;;;;;7.05;75.20;98431.44;4995902;28;20437;-65
2022/02/14 08:44:45;;;;;;;;;;;;;;;7.05;75.30;98430.59;4996527;28;20525;-65
2022/02/14 08:47:29;;;;;;;2.38;2.17;;;;;;;7.03;75.13;98430.56;4995726;28;19960;-65
2022/02/14 08:50:13;;;;;;;2.83;2.30;;;;;;;7.03;75.14;98433.13;4995041;28;20037;-65
2022/02/14 08:53:00;;;;;;;2.88;2.50;;;;;;;7.03;75.49;98429.72;4995805;28;20051;-65
2022/02/14 08:55:44;;;;;;;5.13;2.35;;;;;;;7.01;75.31;98433.13;4994585;28;20087;-65
2022/02/14 08:58:28;;;;;;;2.95;2.65;;;;;;;7.01;75.30;98440.00;4995638;28;20560;-65
2022/02/14 09:01:12;;;;;;;2.45;2.10;;;;;;;7.01;75.14;98440.88;4995589;28;20049;-65
2022/02/14 09:03:56;;;;;;;;;;;;;;;7.01;75.42;98443.44;4995794;28;20050;-65
2022/02/14 09:06:40;;;;;;;3.13;2.45;;;;;;;7.00;75.37;98446.88;4995436;28;19971;-64
2022/02/14 09:09:24;;;;;;;3.30;2.33;;;;;;;7.00;75.56;98454.59;4994687;28;20092;-65
2022/02/14 09:12:08;;;;;;;2.97;2.35;;;;;;;7.02;75.48;98452.00;4995599;28;20177;-65
2022/02/14 09:14:52;;;;;;;;;;;;;;;7.01;75.26;98458.91;4995986;28;20054;-65
2022/02/14 09:17:36;;;;;;;2.78;2.58;;;;;;;7.01;75.20;98461.47;4995061;28;19925;-65
2022/02/14 09:20:23;;;;;;;2.50;2.30;;;;;;;7.03;75.72;98476.94;4995347;28;20053;-65
2022/02/14 09:23:07;;;;;;;2.72;2.50;;;;;;;7.04;75.76;98462.34;4995277;28;20065;-65
2022/02/14 09:25:51;;;;;;;;;;;;;;;7.04;75.66;98467.50;4995163;28;20398;-65
2022/02/14 09:28:35;;;;;;;3.00;2.38;;;;;;;7.03;75.85;98479.50;4994897;28;19976;-66
2022/02/14 09:31:19;;;;;;;5.22;2.58;;;;;;;7.04;75.53;98481.22;4995121;28;20120;-66
2022/02/14 09:34:07;;;;;;;2.95;2.55;;;;;;;7.03;75.34;98476.94;4994972;28;20041;-65
2022/02/14 09:36:53;;;;;;;2.40;2.20;;;;;;;7.04;75.78;98480.38;4994443;28;20057;-65
2022/02/14 09:39:37;;;;;;;4.10;2.50;;;;;;;7.03;75.30;98483.81;4994766;28;20567;-65
2022/02/14 09:42:21;;;;;;;;;;;;;;;7.03;75.28;98486.38;4995347;28;20092;-65
2022/02/14 09:45:05;;;;;;;4.35;2.85;;;;;;;7.01;75.67;98479.50;4993733;28;19921;-65
2022/02/14 09:48:00;;;;;;;;;;;;;;;6.99;75.70;98481.22;4994422;28;20077;-65
2022/02/14 09:50:44;;;;;;;5.28;3.30;;;;;;;6.98;75.71;98487.22;4993955;28;19940;-65
2022/02/14 09:53:28;;;;;;;5.10;2.88;;;;;;;6.97;75.44;98495.78;4994442;28;20505;-65
2022/02/14 09:56:12;;;;;;;3.15;2.05;;;;;;;6.97;75.67;98508.66;4993636;28;20135;-65
2022/02/14 09:58:56;;;;;;;4.18;2.72;;;;;;;6.97;75.45;98518.97;4994393;28;20057;-66
2022/02/14 10:01:40;;;;;;;;;;;;;;;6.98;75.63;98520.69;4994662;28;20072;-65
2022/02/14 10:04:24;;;;;;;3.22;2.50;;;;;;;6.97;75.96;98531.00;4993661;28;20395;-65
2022/02/14 10:07:10;;;;;;;5.75;2.55;;;;;;;6.97;75.75;98538.72;4994628;28;20077;-66
2022/02/14 10:10:06;;;;;;;3.25;2.45;;;;;;;6.97;75.85;98533.56;4993614;28;20069;-65
2022/02/14 10:12:55;;;;;;;2.42;2.13;;;;;;;6.97;75.73;98536.16;4993201;28;20049;-65
2022/02/14 10:15:49;;;;;;;4.05;2.58;;;;;;;6.96;75.88;98547.31;4993324;28;20046;-65
2022/02/14 10:18:34;;;;;;;2.80;2.60;;;;;;;6.97;75.97;98547.31;4994037;28;20049;-65
2022/02/14 10:21:27;;;;;;;2.90;2.08;;;;;;;6.98;75.83;98559.34;4993281;28;20348;-65
2022/02/14 10:24:13;;;;;;;7.10;3.35;;;;;;;6.98;75.66;98558.50;4994227;28;20053;-65
2022/02/14 10:26:57;;;;;;;3.17;2.70;;;;;;;6.99;75.90;98571.38;4993401;28;20045;-65
2022/02/14 10:29:45;;;;;;;8.70;3.03;;;;;;;7.01;75.73;98579.09;4993280;28;20049;-65
2022/02/14 10:32:29;;;;;;;2.50;2.22;;;;;;;7.00;75.76;98583.41;4993064;28;20394;-65
2022/02/14 10:35:13;;;;;;;3.75;2.75;;;;;;;7.00;76.02;98588.56;4993534;28;20394;-65
2022/02/14 10:38:00;;;;;;;3.25;3.00;;;;;;;6.99;75.79;98594.53;4994347;28;20559;-66
2022/02/14 10:40:44;;;;;;;4.30;2.40;;;;;;;6.98;76.06;98599.69;4993076;28;20077;-65
2022/02/14 10:43:33;;;;;;;3.80;2.53;;;;;;;6.98;76.04;98597.13;4994137;28;20104;-65
2022/02/14 10:46:19;;;;;;;3.15;2.45;;;;;;;6.99;75.52;98610.00;4994191;28;20560;-65
2022/02/14 10:49:05;;;;;;;2.65;2.30;;;;;;;6.98;75.69;98605.69;4993657;28;20140;-65
2022/02/14 10:51:53;;;;;;;4.75;2.47;;;;;;;6.98;75.43;98613.44;4993644;28;20044;-65
2022/02/14 10:54:43;;;;;;;3.97;2.50;;;;;;;6.98;76.22;98610.84;4996290;28;20401;-65
2022/02/14 10:57:30;;;;;;;2.95;2.65;;;;;;;6.98;75.72;98620.31;4997383;28;20130;-65
2022/02/14 11:00:20;;;;;;;7.88;3.30;;;;;;;6.98;75.78;98620.31;4996981;28;20406;-65
2022/02/14 11:03:10;;;;;;;7.18;2.92;;;;;;;6.98;75.59;98625.47;4996763;28;20084;-65
2022/02/14 11:05:54;;;;;;;3.00;2.38;;;;;;;6.97;75.80;98616.84;4996746;28;20057;-65
2022/02/14 11:08:39;;;;;;;7.35;2.88;;;;;;;6.97;75.70;98626.31;4997749;28;20100;-65
2022/02/14 11:11:25;;;;;;;3.92;2.60;;;;;;;6.96;76.00;98632.31;4996804;28;20049;-65
2022/02/14 11:14:09;;;;;;;4.88;2.97;;;;;;;6.96;75.78;98633.16;4997328;28;20449;-65
2022/02/14 11:16:56;;;;;;;4.38;2.88;;;;;;;6.96;76.02;98633.16;4997753;28;20467;-65
2022/02/14 11:19:42;;;;;;;3.58;2.33;;;;;;;6.96;75.78;98624.59;4996735;28;20049;-65
2022/02/14 11:22:32;;;;;;;4.43;2.40;;;;;;;6.98;75.91;98633.19;4996626;28;20111;-65
2022/02/14 11:25:24;;;;;;;2.60;2.40;;;;;;;6.97;76.05;98631.47;4996497;28;20053;-65
2022/02/14 11:28:30;;;;;;;7.03;2.85;;;;;;;6.96;75.70;98628.00;4996488;28;20053;-65
2022/02/14 11:31:17;;;;;;;6.65;2.42;;;;;;;6.97;75.98;98623.72;4997240;28;20457;-65
2022/02/14 11:34:04;;;;;;;4.07;2.55;;;;;;;6.97;75.97;98628.88;4996290;28;20092;-65
2022/02/14 11:36:59;;;;;;;7.90;2.80;;;;;;;6.96;76.04;98622.84;4996270;28;20114;-65
2022/02/14 11:39:42;;;;;;;5.40;2.53;;;;;;;6.98;76.04;98622.88;4995966;28;20053;-65
2022/02/14 11:42:26;;;;;;;5.95;2.38;;;;;;;6.97;75.62;98622.00;4997267;28;20394;-65
2022/02/14 11:45:13;;;;;;;6.65;3.05;;;;;;;6.97;76.08;98624.59;4996643;28;20049;-65
2022/02/14 11:48:18;;;;;;;5.82;2.78;;;;;;;6.98;76.20;98605.69;4996979;28;20049;-65
2022/02/14 11:51:05;;;;;;;5.63;2.50;;;;;;;6.98;75.77;98610.84;4996797;28;20413;-65
2022/02/14 11:53:51;;;;;;;5.05;2.97;;;;;;;6.99;75.89;98604.84;4995637;28;20076;-65
2022/02/14 11:56:42;;;;;;;7.78;3.15;;;;;;;6.99;76.04;98615.16;4995865;28;20108;-65
2022/02/14 11:59:28;;;;;;;9.52;2.70;;;;;;;7.00;75.84;98603.16;4996668;28;20049;-64
2022/02/14 12:02:13;;;;;;;2.95;2.10;;;;;;;7.00;76.07;98610.88;4996577;28;20065;-65
2022/02/14 12:04:57;;;;;;;5.25;2.28;;;;;;;7.00;75.86;98608.31;4994327;28;20097;-66
2022/02/14 12:07:41;;;;;;;4.55;2.70;;;;;;;7.00;76.04;98600.59;4995575;28;20053;-65
2022/02/14 12:10:26;;;;;;;;;;;;;;;6.98;76.08;98595.41;4995858;28;20054;-65
2022/02/14 12:13:13;;;;;;;5.45;3.33;;;;;;;6.97;76.11;98593.66;4995673;28;20403;-65
2022/02/14 12:21:47;;;;;;;6.03;2.90;;;;;;;7.00;75.76;98580.81;4996426;28;20057;-65
2022/02/14 12:24:31;;;;;;;9.85;3.20;;;;;;;7.01;76.01;98585.13;4996279;28;20053;-65
2022/02/14 12:27:15;;;;;;;;;;;;;;;7.01;75.89;98585.13;4997044;28;20053;-65
2022/02/14 12:29:59;;;;;;;5.45;2.55;;;;;;;7.00;75.77;98578.25;4996124;28;20278;-65
2022/02/14 12:32:48;;;;;;;4.65;3.10;;;;;;;7.00;75.83;98582.56;4994962;28;20045;-65
2022/02/14 12:35:33;;;;;;;6.00;2.85;;;;;;;7.00;75.79;98587.69;4995041;28;20409;-65
2022/02/14 12:38:18;;;;;;;7.20;3.15;;;;;;;6.99;75.95;98576.53;4995278;28;20085;-65
2022/02/14 12:41:11;;;;;;;5.47;2.45;;;;;;;6.99;75.94;98573.94;4994984;28;20132;-65
2022/02/14 12:43:55;;;;;;;7.68;3.15;;;;;;;7.00;75.88;98578.25;4995382;28;20090;-65
2022/02/14 12:46:38;;;;;;;7.13;3.30;;;;;;;7.00;76.40;98578.25;4995939;28;20058;-65
2022/02/14 12:49:22;;;;;;;5.72;3.38;;;;;;;7.00;76.26;98579.97;4994837;28;20041;-65
2022/02/14 12:52:16;;;;;;;7.50;2.63;;;;;;;6.98;75.86;98579.09;4994690;28;20096;-65
2022/02/14 12:55:01;;;;;;;11.00;3.30;;;;;;;7.01;75.81;98576.50;4994947;28;20509;-65
2022/02/14 12:57:52;;;;;;;7.20;2.92;;;;;;;7.03;76.13;98572.25;4994889;28;20096;-65
2022/02/14 13:00:42;;;;;;;10.20;2.92;;;;;;;7.05;76.28;98587.72;4995509;28;20128;-65
2022/02/14 13:03:26;;;;;;;8.93;2.70;;;;;;;7.05;75.71;98592.88;4994634;28;20267;-64
2022/02/14 13:06:10;;;;;;;3.50;2.55;;;;;;;7.06;75.99;98585.16;4995477;28;20621;-66
2022/02/14 13:08:54;;;;;;;9.25;3.35;;;;;;;7.09;76.22;98590.31;4995610;28;20046;-65
2022/02/14 13:11:41;;;;;;;3.78;2.63;;;;;;;7.10;76.04;98588.59;4995438;28;20444;-65
2022/02/14 13:14:26;;;;;;;3.55;2.42;;;;;;;7.10;75.71;98596.31;4995213;28;20045;-65
2022/02/14 13:17:16;;;;;;;6.60;2.97;;;;;;;7.12;75.98;98600.66;4994066;28;20076;-66